sensor_id;sensor_type;location;lat;lon;timestamp;pressure;altitude;pressure_sealevel;temperature;humidity
7918;BME280;4004;42.624;23.386;2023-01-30T00:01:20;94346.56;;;-0.08;100.00
7918;BME280;4004;42.624;23.386;2023-01-30T00:03:48;94354.13;;;-0.20;100.00
7918;BME280;4004;42.624;23.386;2023-01-30T00:06:15;94348.78;;;-0.15;100.00
7918;BME280;4004;42.624;23.386;2023-01-30T00:08:42;94349.28;;;-0.13;100.00
7918;BME280;4004;42.624;23.386;2023-01-30T00:11:11;94345.63;;;-0.17;100.00
7918;BME280;4004;42.624;23.386;2023-01-30T00:13:38;94347.31;;;-0.26;100.00
7918;BME280;4004;42.624;23.386;2023-01-30T00:16:06;94345.19;;;-0.24;100.00
7918;BME280;4004;42.624;23.386;2023-01-30T00:18:34;94337.59;;;-0.31;100.00
7918;BME280;4004;42.624;23.386;2023-01-30T00:21:03;94347.59;;;-0.28;100.00
7918;BME280;4004;42.624;23.386;2023-01-30T00:23:32;94342.53;;;-0.24;100.00
7918;BME280;4004;42.624;23.386;2023-01-30T00:26:00;94341.91;;;-0.40;100.00
7918;BME280;4004;42.624;23.386;2023-01-30T00:28:26;94341.06;;;-0.35;100.00
7918;BME280;4004;42.624;23.386;2023-01-30T00:30:54;94345.22;;;-0.29;100.00
7918;BME280;4004;42.624;23.386;2023-01-30T00:33:22;94346.53;;;-0.27;100.00
7918;BME280;4004;42.624;23.386;2023-01-30T00:35:51;94345.72;;;-0.27;100.00
7918;BME280;4004;42.624;23.386;2023-01-30T00:38:20;94349.44;;;-0.28;100.00
7918;BME280;4004;42.624;23.386;2023-01-30T00:40:47;94349.38;;;-0.23;100.00
7918;BME280;4004;42.624;23.386;2023-01-30T00:43:16;94343.66;;;-0.30;100.00
7918;BME280;4004;42.624;23.386;2023-01-30T00:46:02;94327.06;;;-0.36;100.00
7918;BME280;4004;42.624;23.386;2023-01-30T00:48:47;94327.06;;;-0.36;100.00
7918;BME280;4004;42.624;23.386;2023-01-30T00:51:14;94323.03;;;-0.28;100.00
7918;BME280;4004;42.624;23.386;2023-01-30T00:53:42;94326.22;;;-0.31;100.00
7918;BME280;4004;42.624;23.386;2023-01-30T00:56:09;94324.72;;;-0.37;100.00
7918;BME280;4004;42.624;23.386;2023-01-30T00:58:35;94321.25;;;-0.38;100.00
7918;BME280;4004;42.624;23.386;2023-01-30T01:01:02;94329.38;;;-0.53;100.00
7918;BME280;4004;42.624;23.386;2023-01-30T01:03:29;94321.91;;;-0.46;100.00
7918;BME280;4004;42.624;23.386;2023-01-30T01:05:56;94330.03;;;-0.43;100.00
7918;BME280;4004;42.624;23.386;2023-01-30T01:08:23;94324.22;;;-0.39;100.00
7918;BME280;4004;42.624;23.386;2023-01-30T01:10:51;94329.44;;;-0.34;100.00
7918;BME280;4004;42.624;23.386;2023-01-30T01:13:17;94326.22;;;-0.31;100.00
7918;BME280;4004;42.624;23.386;2023-01-30T01:15:44;94308.13;;;-0.43;100.00
7918;BME280;4004;42.624;23.386;2023-01-30T01:18:11;94326.44;;;-0.52;100.00
7918;BME280;4004;42.624;23.386;2023-01-30T01:20:37;94325.38;;;-0.51;100.00
7918;BME280;4004;42.624;23.386;2023-01-30T01:23:04;94315.84;;;-0.47;100.00
7918;BME280;4004;42.624;23.386;2023-01-30T01:25:31;94308.63;;;-0.41;100.00
7918;BME280;4004;42.624;23.386;2023-01-30T01:27:59;94313.06;;;-0.36;100.00
7918;BME280;4004;42.624;23.386;2023-01-30T01:30:25;94318.50;;;-0.52;100.00
7918;BME280;4004;42.624;23.386;2023-01-30T01:32:52;94317.47;;;-0.51;100.00
7918;BME280;4004;42.624;23.386;2023-01-30T01:35:19;94308.19;;;-0.48;100.00
7918;BME280;4004;42.624;23.386;2023-01-30T01:37:46;94306.38;;;-0.53;100.00
7918;BME280;4004;42.624;23.386;2023-01-30T01:40:17;94302.91;;;-0.48;100.00
7918;BME280;4004;42.624;23.386;2023-01-30T01:43:14;94304.97;;;-0.45;100.00
7918;BME280;4004;42.624;23.386;2023-01-30T01:45:41;94304.53;;;-0.52;100.00
7918;BME280;4004;42.624;23.386;2023-01-30T01:48:11;94305.81;;;-0.50;100.00
7918;BME280;4004;42.624;23.386;2023-01-30T01:50:43;94302.16;;;-0.54;100.00
7918;BME280;4004;42.624;23.386;2023-01-30T01:53:14;94306.66;;;-0.54;100.00
7918;BME280;4004;42.624;23.386;2023-01-30T01:55:43;94314.84;;;-0.56;100.00
7918;BME280;4004;42.624;23.386;2023-01-30T01:58:16;94308.56;;;-0.60;100.00
7918;BME280;4004;42.624;23.386;2023-01-30T02:00:44;94310.19;;;-0.64;100.00
7918;BME280;4004;42.624;23.386;2023-01-30T02:03:14;94293.53;;;-0.65;100.00
7918;BME280;4004;42.624;23.386;2023-01-30T02:05:45;94302.69;;;-0.81;100.00
7918;BME280;4004;42.624;23.386;2023-01-30T02:08:15;94289.38;;;-0.95;100.00
7918;BME280;4004;42.624;23.386;2023-01-30T02:10:49;94316.16;;;-0.82;100.00
7918;BME280;4004;42.624;23.386;2023-01-30T02:13:21;94319.56;;;-0.77;100.00
7918;BME280;4004;42.624;23.386;2023-01-30T02:15:48;94306.59;;;-0.73;100.00
7918;BME280;4004;42.624;23.386;2023-01-30T02:18:15;94316.09;;;-0.72;100.00
7918;BME280;4004;42.624;23.386;2023-01-30T02:20:54;94319.78;;;-0.73;100.00
7918;BME280;4004;42.624;23.386;2023-01-30T02:26:44;94312.66;;;-0.73;100.00
7918;BME280;4004;42.624;23.386;2023-01-30T02:32:13;94299.63;;;-0.64;100.00
7918;BME280;4004;42.624;23.386;2023-01-30T02:34:50;94305.47;;;-0.67;100.00
7918;BME280;4004;42.624;23.386;2023-01-30T02:37:26;94314.66;;;-0.65;100.00
7918;BME280;4004;42.624;23.386;2023-01-30T02:42:52;94304.41;;;-0.66;100.00
7918;BME280;4004;42.624;23.386;2023-01-30T02:45:25;94307.59;;;-0.69;100.00
7918;BME280;4004;42.624;23.386;2023-01-30T02:48:01;94290.13;;;-0.65;100.00
7918;BME280;4004;42.624;23.386;2023-01-30T02:50:31;94291.09;;;-0.56;100.00
7918;BME280;4004;42.624;23.386;2023-01-30T02:52:58;94296.38;;;-0.56;100.00
7918;BME280;4004;42.624;23.386;2023-01-30T02:55:27;94294.72;;;-0.47;100.00
7918;BME280;4004;42.624;23.386;2023-01-30T02:57:54;94287.78;;;-0.43;100.00
7918;BME280;4004;42.624;23.386;2023-01-30T03:00:24;94289.91;;;-0.45;100.00
7918;BME280;4004;42.624;23.386;2023-01-30T03:03:12;94294.81;;;-0.57;100.00
7918;BME280;4004;42.624;23.386;2023-01-30T03:08:55;94285.75;;;-0.51;100.00
7918;BME280;4004;42.624;23.386;2023-01-30T03:11:32;94298.47;;;-0.53;100.00
7918;BME280;4004;42.624;23.386;2023-01-30T03:14:07;94296.34;;;-0.51;100.00
7918;BME280;4004;42.624;23.386;2023-01-30T03:16:37;94289.25;;;-0.55;100.00
7918;BME280;4004;42.624;23.386;2023-01-30T03:19:09;94285.53;;;-0.54;100.00
7918;BME280;4004;42.624;23.386;2023-01-30T03:21:39;94276.56;;;-0.53;100.00
7918;BME280;4004;42.624;23.386;2023-01-30T03:24:06;94272.84;;;-0.52;100.00
7918;BME280;4004;42.624;23.386;2023-01-30T03:26:35;94261.38;;;-0.67;100.00
7918;BME280;4004;42.624;23.386;2023-01-30T03:29:04;94273.78;;;-0.67;100.00
7918;BME280;4004;42.624;23.386;2023-01-30T03:31:31;94271.47;;;-0.50;100.00
7918;BME280;4004;42.624;23.386;2023-01-30T03:33:58;94266.63;;;-0.43;100.00
7918;BME280;4004;42.624;23.386;2023-01-30T03:36:26;94262.72;;;-0.45;100.00
7918;BME280;4004;42.624;23.386;2023-01-30T03:38:53;94252.94;;;-0.45;100.00
7918;BME280;4004;42.624;23.386;2023-01-30T03:41:20;94254.00;;;-0.46;100.00
7918;BME280;4004;42.624;23.386;2023-01-30T03:43:46;94257.31;;;-0.59;100.00
7918;BME280;4004;42.624;23.386;2023-01-30T03:46:13;94257.00;;;-0.52;100.00
7918;BME280;4004;42.624;23.386;2023-01-30T03:48:40;94257.38;;;-0.64;100.00
7918;BME280;4004;42.624;23.386;2023-01-30T03:51:07;94265.81;;;-0.62;100.00
7918;BME280;4004;42.624;23.386;2023-01-30T03:53:35;94271.31;;;-0.58;100.00
7918;BME280;4004;42.624;23.386;2023-01-30T03:56:01;94268.22;;;-0.66;100.00
7918;BME280;4004;42.624;23.386;2023-01-30T03:58:28;94248.72;;;-0.70;100.00
7918;BME280;4004;42.624;23.386;2023-01-30T04:00:55;94247.72;;;-0.74;100.00
7918;BME280;4004;42.624;23.386;2023-01-30T04:03:22;94251.59;;;-0.66;100.00
7918;BME280;4004;42.624;23.386;2023-01-30T04:05:49;94252.66;;;-0.67;100.00
7918;BME280;4004;42.624;23.386;2023-01-30T04:08:16;94241.47;;;-0.59;100.00
7918;BME280;4004;42.624;23.386;2023-01-30T04:10:44;94254.13;;;-0.56;100.00
7918;BME280;4004;42.624;23.386;2023-01-30T04:13:11;94251.94;;;-0.49;100.00
7918;BME280;4004;42.624;23.386;2023-01-30T04:15:37;94246.94;;;-0.50;100.00
7918;BME280;4004;42.624;23.386;2023-01-30T04:18:04;94255.97;;;-0.56;100.00
7918;BME280;4004;42.624;23.386;2023-01-30T04:20:31;94256.16;;;-0.48;100.00
7918;BME280;4004;42.624;23.386;2023-01-30T04:22:58;94250.94;;;-0.53;100.00
7918;BME280;4004;42.624;23.386;2023-01-30T04:25:24;94249.34;;;-0.54;100.00
7918;BME280;4004;42.624;23.386;2023-01-30T04:27:52;94252.31;;;-0.60;100.00
7918;BME280;4004;42.624;23.386;2023-01-30T04:30:19;94254.00;;;-0.70;100.00
7918;BME280;4004;42.624;23.386;2023-01-30T04:32:46;94249.47;;;-0.64;100.00
7918;BME280;4004;42.624;23.386;2023-01-30T04:35:13;94256.75;;;-0.56;100.00
7918;BME280;4004;42.624;23.386;2023-01-30T04:37:40;94250.53;;;-0.65;100.00
7918;BME280;4004;42.624;23.386;2023-01-30T04:40:08;94255.09;;;-0.71;100.00
7918;BME280;4004;42.624;23.386;2023-01-30T04:42:34;94246.59;;;-0.68;100.00
7918;BME280;4004;42.624;23.386;2023-01-30T04:45:03;94251.94;;;-0.73;100.00
7918;BME280;4004;42.624;23.386;2023-01-30T04:47:30;94242.16;;;-0.72;100.00
7918;BME280;4004;42.624;23.386;2023-01-30T04:49:57;94238.00;;;-0.78;100.00
7918;BME280;4004;42.624;23.386;2023-01-30T04:52:24;94239.63;;;-0.82;100.00
7918;BME280;4004;42.624;23.386;2023-01-30T04:54:50;94228.00;;;-0.81;100.00
7918;BME280;4004;42.624;23.386;2023-01-30T04:57:17;94230.66;;;-0.81;100.00
7918;BME280;4004;42.624;23.386;2023-01-30T04:59:44;94229.63;;;-0.86;100.00
7918;BME280;4004;42.624;23.386;2023-01-30T05:02:12;94224.25;;;-0.75;100.00
7918;BME280;4004;42.624;23.386;2023-01-30T05:04:38;94227.09;;;-0.72;100.00
7918;BME280;4004;42.624;23.386;2023-01-30T05:07:05;94229.06;;;-0.58;100.00
7918;BME280;4004;42.624;23.386;2023-01-30T05:09:33;94222.72;;;-0.57;100.00
7918;BME280;4004;42.624;23.386;2023-01-30T05:11:59;94219.78;;;-0.56;100.00
7918;BME280;4004;42.624;23.386;2023-01-30T05:14:26;94222.13;;;-0.73;100.00
7918;BME280;4004;42.624;23.386;2023-01-30T05:16:53;94218.97;;;-0.75;100.00
7918;BME280;4004;42.624;23.386;2023-01-30T05:19:21;94222.41;;;-0.75;100.00
7918;BME280;4004;42.624;23.386;2023-01-30T05:21:48;94233.16;;;-0.71;100.00
7918;BME280;4004;42.624;23.386;2023-01-30T05:24:14;94235.03;;;-0.72;100.00
7918;BME280;4004;42.624;23.386;2023-01-30T05:26:41;94241.91;;;-0.76;100.00
7918;BME280;4004;42.624;23.386;2023-01-30T05:29:09;94238.44;;;-0.71;100.00
7918;BME280;4004;42.624;23.386;2023-01-30T05:31:35;94235.66;;;-0.80;100.00
7918;BME280;4004;42.624;23.386;2023-01-30T05:34:03;94241.72;;;-0.79;100.00
7918;BME280;4004;42.624;23.386;2023-01-30T05:36:31;94237.47;;;-0.80;100.00
7918;BME280;4004;42.624;23.386;2023-01-30T05:38:57;94232.94;;;-0.75;100.00
7918;BME280;4004;42.624;23.386;2023-01-30T05:41:24;94236.81;;;-0.67;100.00
7918;BME280;4004;42.624;23.386;2023-01-30T05:43:51;94223.84;;;-0.64;100.00
7918;BME280;4004;42.624;23.386;2023-01-30T05:46:18;94230.47;;;-0.66;100.00
7918;BME280;4004;42.624;23.386;2023-01-30T05:48:45;94231.59;;;-0.72;100.00
7918;BME280;4004;42.624;23.386;2023-01-30T05:51:17;94239.53;;;-0.72;100.00
7918;BME280;4004;42.624;23.386;2023-01-30T05:53:46;94236.88;;;-0.72;100.00
7918;BME280;4004;42.624;23.386;2023-01-30T05:56:12;94237.22;;;-0.79;100.00
7918;BME280;4004;42.624;23.386;2023-01-30T05:58:39;94239.59;;;-0.77;100.00
7918;BME280;4004;42.624;23.386;2023-01-30T06:01:09;94239.16;;;-0.90;100.00
7918;BME280;4004;42.624;23.386;2023-01-30T06:03:37;94237.53;;;-0.86;100.00
7918;BME280;4004;42.624;23.386;2023-01-30T06:06:05;94234.63;;;-0.84;100.00
7918;BME280;4004;42.624;23.386;2023-01-30T06:08:32;94240.94;;;-0.80;100.00
7918;BME280;4004;42.624;23.386;2023-01-30T06:11:00;94239.63;;;-0.82;100.00
7918;BME280;4004;42.624;23.386;2023-01-30T06:13:27;94245.41;;;-0.80;100.00
7918;BME280;4004;42.624;23.386;2023-01-30T06:15:54;94239.06;;;-0.79;100.00
7918;BME280;4004;42.624;23.386;2023-01-30T06:18:21;94238.50;;;-0.76;100.00
7918;BME280;4004;42.624;23.386;2023-01-30T06:20:48;94238.00;;;-0.78;100.00
7918;BME280;4004;42.624;23.386;2023-01-30T06:23:15;94226.41;;;-0.82;100.00
7918;BME280;4004;42.624;23.386;2023-01-30T06:25:43;94224.75;;;-0.73;100.00
7918;BME280;4004;42.624;23.386;2023-01-30T06:28:12;94226.16;;;-0.81;100.00
7918;BME280;4004;42.624;23.386;2023-01-30T06:30:39;94236.13;;;-0.78;100.00
7918;BME280;4004;42.624;23.386;2023-01-30T06:33:06;94232.22;;;-0.80;100.00
7918;BME280;4004;42.624;23.386;2023-01-30T06:35:33;94231.59;;;-0.72;100.00
7918;BME280;4004;42.624;23.386;2023-01-30T06:38:00;94225.25;;;-0.71;100.00
7918;BME280;4004;42.624;23.386;2023-01-30T06:40:27;94231.00;;;-0.64;100.00
7918;BME280;4004;42.624;23.386;2023-01-30T06:42:53;94228.84;;;-0.62;100.00
7918;BME280;4004;42.624;23.386;2023-01-30T06:45:21;94230.94;;;-0.59;100.00
7918;BME280;4004;42.624;23.386;2023-01-30T06:47:50;94229.91;;;-0.63;100.00
7918;BME280;4004;42.624;23.386;2023-01-30T06:50:19;94237.03;;;-0.64;100.00
7918;BME280;4004;42.624;23.386;2023-01-30T06:52:48;94236.53;;;-0.66;100.00
7918;BME280;4004;42.624;23.386;2023-01-30T06:55:17;94232.72;;;-0.78;100.00
7918;BME280;4004;42.624;23.386;2023-01-30T06:57:44;94248.34;;;-0.82;100.00
7918;BME280;4004;42.624;23.386;2023-01-30T07:00:13;94244.56;;;-0.76;100.00
7918;BME280;4004;42.624;23.386;2023-01-30T07:02:42;94249.06;;;-0.76;100.00
7918;BME280;4004;42.624;23.386;2023-01-30T07:05:09;94253.16;;;-0.65;100.00
7918;BME280;4004;42.624;23.386;2023-01-30T07:07:37;94254.75;;;-0.64;100.00
7918;BME280;4004;42.624;23.386;2023-01-30T07:10:05;94245.53;;;-0.67;100.00
7918;BME280;4004;42.624;23.386;2023-01-30T07:12:32;94250.00;;;-0.67;100.00
7918;BME280;4004;42.624;23.386;2023-01-30T07:14:59;94256.38;;;-0.68;100.00
7918;BME280;4004;42.624;23.386;2023-01-30T07:17:26;94256.81;;;-0.61;100.00
7918;BME280;4004;42.624;23.386;2023-01-30T07:19:54;94231.69;;;-0.82;100.00
7918;BME280;4004;42.624;23.386;2023-01-30T07:22:20;94261.88;;;-0.65;100.00
7918;BME280;4004;42.624;23.386;2023-01-30T07:24:47;94261.38;;;-0.91;100.00
7918;BME280;4004;42.624;23.386;2023-01-30T07:27:14;94264.78;;;-0.90;100.00
7918;BME280;4004;42.624;23.386;2023-01-30T07:29:41;94270.78;;;-0.85;100.00
7918;BME280;4004;42.624;23.386;2023-01-30T07:32:16;94266.00;;;-0.82;100.00
7918;BME280;4004;42.624;23.386;2023-01-30T07:34:44;94272.88;;;-0.81;100.00
7918;BME280;4004;42.624;23.386;2023-01-30T07:37:12;94262.72;;;-0.69;100.00
7918;BME280;4004;42.624;23.386;2023-01-30T07:39:39;94247.44;;;-0.72;100.00
7918;BME280;4004;42.624;23.386;2023-01-30T07:42:06;94269.91;;;-0.51;100.00
7918;BME280;4004;42.624;23.386;2023-01-30T07:44:33;94281.34;;;-0.55;100.00
7918;BME280;4004;42.624;23.386;2023-01-30T07:47:00;94272.38;;;-0.59;100.00
7918;BME280;4004;42.624;23.386;2023-01-30T07:49:27;94279.53;;;-0.60;100.00
7918;BME280;4004;42.624;23.386;2023-01-30T07:51:53;94277.94;;;-0.61;100.00
7918;BME280;4004;42.624;23.386;2023-01-30T07:54:21;94272.44;;;-0.65;100.00
7918;BME280;4004;42.624;23.386;2023-01-30T07:56:48;94270.09;;;-0.66;100.00
7918;BME280;4004;42.624;23.386;2023-01-30T07:59:15;94269.06;;;-0.70;100.00
7918;BME280;4004;42.624;23.386;2023-01-30T08:01:41;94258.19;;;-0.64;100.00
7918;BME280;4004;42.624;23.386;2023-01-30T08:04:08;94255.78;;;-0.60;100.00
7918;BME280;4004;42.624;23.386;2023-01-30T08:06:35;94253.22;;;-0.70;100.00
7918;BME280;4004;42.624;23.386;2023-01-30T08:09:04;94249.31;;;-0.49;100.00
7918;BME280;4004;42.624;23.386;2023-01-30T08:11:33;94243.38;;;-0.40;100.00
7918;BME280;4004;42.624;23.386;2023-01-30T08:14:00;94252.16;;;-0.45;100.00
7918;BME280;4004;42.624;23.386;2023-01-30T08:16:27;94243.34;;;-0.35;100.00
7918;BME280;4004;42.624;23.386;2023-01-30T08:18:56;94241.31;;;-0.25;100.00
7918;BME280;4004;42.624;23.386;2023-01-30T08:21:23;94250.84;;;-0.24;100.00
7918;BME280;4004;42.624;23.386;2023-01-30T08:23:50;94235.66;;;-0.13;100.00
7918;BME280;4004;42.624;23.386;2023-01-30T08:26:16;94248.63;;;-0.16;100.00
7918;BME280;4004;42.624;23.386;2023-01-30T08:28:44;94248.56;;;-0.11;100.00
7918;BME280;4004;42.624;23.386;2023-01-30T08:31:12;94248.72;;;-0.03;100.00
7918;BME280;4004;42.624;23.386;2023-01-30T08:33:39;94247.66;;;-0.02;100.00
7918;BME280;4004;42.624;23.386;2023-01-30T08:36:07;94240.72;;;0.03;100.00
7918;BME280;4004;42.624;23.386;2023-01-30T08:38:33;94237.22;;;0.07;100.00
7918;BME280;4004;42.624;23.386;2023-01-30T08:41:03;94241.22;;;0.24;100.00
7918;BME280;4004;42.624;23.386;2023-01-30T08:43:31;94231.50;;;0.19;100.00
7918;BME280;4004;42.624;23.386;2023-01-30T08:45:59;94229.44;;;0.16;99.58
7918;BME280;4004;42.624;23.386;2023-01-30T08:48:26;94223.72;;;0.28;99.05
7918;BME280;4004;42.624;23.386;2023-01-30T08:50:53;94221.47;;;0.35;98.29
7918;BME280;4004;42.624;23.386;2023-01-30T08:53:20;94221.28;;;0.31;97.44
7918;BME280;4004;42.624;23.386;2023-01-30T08:55:48;94223.06;;;0.36;97.93
7918;BME280;4004;42.624;23.386;2023-01-30T08:58:15;94209.34;;;0.34;97.06
7918;BME280;4004;42.624;23.386;2023-01-30T09:00:42;94212.63;;;0.45;96.71
7918;BME280;4004;42.624;23.386;2023-01-30T09:03:12;94210.16;;;0.48;94.84
7918;BME280;4004;42.624;23.386;2023-01-30T09:05:39;94214.94;;;0.65;95.40
7918;BME280;4004;42.624;23.386;2023-01-30T09:08:05;94204.25;;;0.70;94.02
7918;BME280;4004;42.624;23.386;2023-01-30T09:10:32;94205.56;;;0.87;94.17
7918;BME280;4004;42.624;23.386;2023-01-30T09:12:59;94211.19;;;0.99;93.67
7918;BME280;4004;42.624;23.386;2023-01-30T09:15:26;94199.31;;;1.10;91.71
7918;BME280;4004;42.624;23.386;2023-01-30T09:17:52;94198.44;;;1.01;90.31
7918;BME280;4004;42.624;23.386;2023-01-30T09:20:21;94206.28;;;1.06;88.37
7918;BME280;4004;42.624;23.386;2023-01-30T09:22:47;94193.41;;;0.86;86.97
7918;BME280;4004;42.624;23.386;2023-01-30T09:25:14;94197.63;;;0.87;87.27
7918;BME280;4004;42.624;23.386;2023-01-30T09:27:41;94203.03;;;0.95;87.29
7918;BME280;4004;42.624;23.386;2023-01-30T09:30:09;94193.81;;;1.07;87.93
7918;BME280;4004;42.624;23.386;2023-01-30T09:32:37;94189.50;;;0.97;85.96
7918;BME280;4004;42.624;23.386;2023-01-30T09:35:04;94192.25;;;0.92;86.45
7918;BME280;4004;42.624;23.386;2023-01-30T09:37:32;94199.88;;;0.93;86.19
7918;BME280;4004;42.624;23.386;2023-01-30T09:39:59;94195.97;;;0.91;86.97
7918;BME280;4004;42.624;23.386;2023-01-30T09:43:01;94196.78;;;0.91;87.20
7918;BME280;4004;42.624;23.386;2023-01-30T09:45:43;94185.31;;;1.10;87.52
7918;BME280;4004;42.624;23.386;2023-01-30T09:48:18;94194.63;;;1.07;88.03
7918;BME280;4004;42.624;23.386;2023-01-30T09:51:05;94185.69;;;1.03;88.41
7918;BME280;4004;42.624;23.386;2023-01-30T09:53:49;94182.81;;;0.86;90.23
7918;BME280;4004;42.624;23.386;2023-01-30T09:56:18;94180.19;;;0.86;91.84
7918;BME280;4004;42.624;23.386;2023-01-30T09:58:49;94164.91;;;0.96;90.81
7918;BME280;4004;42.624;23.386;2023-01-30T10:01:22;94176.25;;;0.83;91.05
7918;BME280;4004;42.624;23.386;2023-01-30T10:04:04;94161.25;;;0.78;91.74
7918;BME280;4004;42.624;23.386;2023-01-30T10:06:35;94159.50;;;0.88;91.94
7918;BME280;4004;42.624;23.386;2023-01-30T10:09:10;94154.09;;;0.79;93.03
7918;BME280;4004;42.624;23.386;2023-01-30T10:11:49;94155.00;;;1.02;93.65
7918;BME280;4004;42.624;23.386;2023-01-30T10:14:32;94151.56;;;1.01;93.25
7918;BME280;4004;42.624;23.386;2023-01-30T10:17:10;94147.34;;;1.14;93.92
7918;BME280;4004;42.624;23.386;2023-01-30T10:19:58;94141.38;;;1.22;92.29
7918;BME280;4004;42.624;23.386;2023-01-30T10:22:36;94124.19;;;1.06;92.42
7918;BME280;4004;42.624;23.386;2023-01-30T10:25:19;94121.88;;;1.05;93.22
7918;BME280;4004;42.624;23.386;2023-01-30T10:27:54;94110.47;;;1.04;93.07
7918;BME280;4004;42.624;23.386;2023-01-30T10:30:23;94124.19;;;1.06;93.88
7918;BME280;4004;42.624;23.386;2023-01-30T10:32:53;94114.19;;;1.17;94.16
7918;BME280;4004;42.624;23.386;2023-01-30T10:35:22;94114.97;;;1.17;93.43
7918;BME280;4004;42.624;23.386;2023-01-30T10:37:56;94094.22;;;0.97;92.98
7918;BME280;4004;42.624;23.386;2023-01-30T10:40:28;94103.13;;;0.87;93.31
7918;BME280;4004;42.624;23.386;2023-01-30T10:43:02;94089.69;;;0.97;93.21
7918;BME280;4004;42.624;23.386;2023-01-30T10:45:37;94092.34;;;0.83;92.59
7918;BME280;4004;42.624;23.386;2023-01-30T10:48:19;94092.75;;;1.05;92.93
7918;BME280;4004;42.624;23.386;2023-01-30T10:50:51;94079.88;;;1.12;91.11
7918;BME280;4004;42.624;23.386;2023-01-30T10:53:24;94078.31;;;1.11;91.05
7918;BME280;4004;42.624;23.386;2023-01-30T10:56:00;94067.50;;;1.21;91.13
7918;BME280;4004;42.624;23.386;2023-01-30T10:58:34;94064.34;;;1.33;90.32
7918;BME280;4004;42.624;23.386;2023-01-30T11:01:09;94052.59;;;1.25;89.29
7918;BME280;4004;42.624;23.386;2023-01-30T11:03:45;94048.41;;;1.10;88.43
7918;BME280;4004;42.624;23.386;2023-01-30T11:06:16;94053.63;;;1.01;89.73
7918;BME280;4004;42.624;23.386;2023-01-30T11:08:44;94033.69;;;1.04;89.69
7918;BME280;4004;42.624;23.386;2023-01-30T11:11:27;94038.50;;;1.16;89.63
7918;BME280;4004;42.624;23.386;2023-01-30T11:14:02;94030.22;;;1.31;88.96
7918;BME280;4004;42.624;23.386;2023-01-30T11:16:30;94023.00;;;1.45;87.80
7918;BME280;4004;42.624;23.386;2023-01-30T11:18:57;94018.56;;;1.55;87.52
7918;BME280;4004;42.624;23.386;2023-01-30T11:21:27;94020.03;;;1.61;86.29
7918;BME280;4004;42.624;23.386;2023-01-30T11:23:55;94007.59;;;1.48;85.14
7918;BME280;4004;42.624;23.386;2023-01-30T11:26:24;94013.03;;;1.42;86.33
7918;BME280;4004;42.624;23.386;2023-01-30T11:28:55;94007.91;;;1.46;85.92
7918;BME280;4004;42.624;23.386;2023-01-30T11:31:25;93996.09;;;1.30;85.22
7918;BME280;4004;42.624;23.386;2023-01-30T11:33:59;93986.56;;;1.29;86.09
7918;BME280;4004;42.624;23.386;2023-01-30T11:36:27;93989.47;;;1.41;86.08
7918;BME280;4004;42.624;23.386;2023-01-30T11:38:59;93988.03;;;1.35;85.38
7918;BME280;4004;42.624;23.386;2023-01-30T11:41:27;93986.28;;;1.53;85.97
7918;BME280;4004;42.624;23.386;2023-01-30T11:44:00;93979.50;;;1.60;84.33
7918;BME280;4004;42.624;23.386;2023-01-30T11:46:30;93967.50;;;1.63;84.40
7918;BME280;4004;42.624;23.386;2023-01-30T11:49:00;93971.06;;;1.58;83.87
7918;BME280;4004;42.624;23.386;2023-01-30T11:51:28;93962.97;;;1.63;84.21
7918;BME280;4004;42.624;23.386;2023-01-30T11:53:57;93958.66;;;1.68;83.49
7918;BME280;4004;42.624;23.386;2023-01-30T11:56:32;93949.06;;;1.80;83.59
7918;BME280;4004;42.624;23.386;2023-01-30T11:59:03;93943.53;;;1.99;82.46
7918;BME280;4004;42.624;23.386;2023-01-30T12:01:32;93941.88;;;2.12;82.06
7918;BME280;4004;42.624;23.386;2023-01-30T12:04:00;93940.09;;;1.99;81.77
7918;BME280;4004;42.624;23.386;2023-01-30T12:06:29;93927.47;;;1.96;81.85
7918;BME280;4004;42.624;23.386;2023-01-30T12:08:57;93922.63;;;1.98;81.68
7918;BME280;4004;42.624;23.386;2023-01-30T12:11:30;93919.41;;;2.10;81.32
7918;BME280;4004;42.624;23.386;2023-01-30T12:14:24;93907.22;;;2.08;80.67
7918;BME280;4004;42.624;23.386;2023-01-30T12:16:59;93906.75;;;1.75;81.61
7918;BME280;4004;42.624;23.386;2023-01-30T12:19:44;93913.16;;;1.43;82.60
7918;BME280;4004;42.624;23.386;2023-01-30T12:22:23;93904.81;;;1.58;83.62
7918;BME280;4004;42.624;23.386;2023-01-30T12:24:57;93900.91;;;1.56;83.82
7918;BME280;4004;42.624;23.386;2023-01-30T12:27:30;93900.66;;;1.66;84.44
7918;BME280;4004;42.624;23.386;2023-01-30T12:30:04;93904.94;;;1.53;83.82
7918;BME280;4004;42.624;23.386;2023-01-30T12:32:34;93887.38;;;1.35;84.23
7918;BME280;4004;42.624;23.386;2023-01-30T12:35:08;93879.69;;;1.24;84.65
7918;BME280;4004;42.624;23.386;2023-01-30T12:37:48;93885.28;;;1.23;84.43
7918;BME280;4004;42.624;23.386;2023-01-30T12:40:30;93883.06;;;1.16;84.68
7918;BME280;4004;42.624;23.386;2023-01-30T12:43:23;93884.56;;;1.09;83.84
7918;BME280;4004;42.624;23.386;2023-01-30T12:46:03;93882.09;;;1.12;85.03
7918;BME280;4004;42.624;23.386;2023-01-30T12:48:53;93873.81;;;1.05;84.11
7918;BME280;4004;42.624;23.386;2023-01-30T12:51:36;93869.91;;;0.89;85.26
7918;BME280;4004;42.624;23.386;2023-01-30T12:54:10;93854.16;;;0.83;85.26
7918;BME280;4004;42.624;23.386;2023-01-30T12:57:00;93849.09;;;0.73;86.34
7918;BME280;4004;42.624;23.386;2023-01-30T12:59:35;93841.41;;;0.86;82.51
7918;BME280;4004;42.624;23.386;2023-01-30T13:02:39;93816.56;;;0.95;80.91
7918;BME280;4004;42.624;23.386;2023-01-30T13:05:19;93829.56;;;1.06;78.80
7918;BME280;4004;42.624;23.386;2023-01-30T13:08:09;93837.38;;;1.11;75.83
7918;BME280;4004;42.624;23.386;2023-01-30T13:10:45;93834.06;;;1.28;73.64
7918;BME280;4004;42.624;23.386;2023-01-30T13:13:18;93834.69;;;1.24;73.73
7918;BME280;4004;42.624;23.386;2023-01-30T13:15:54;93828.91;;;1.22;73.28
7918;BME280;4004;42.624;23.386;2023-01-30T13:18:31;93831.91;;;1.30;74.90
7918;BME280;4004;42.624;23.386;2023-01-30T13:21:05;93830.31;;;1.29;74.34
7918;BME280;4004;42.624;23.386;2023-01-30T13:23:40;93825.88;;;1.47;74.05
7918;BME280;4004;42.624;23.386;2023-01-30T13:26:10;93828.50;;;1.38;73.40
7918;BME280;4004;42.624;23.386;2023-01-30T13:28:43;93827.41;;;1.39;76.51
7918;BME280;4004;42.624;23.386;2023-01-30T13:31:13;93825.22;;;1.32;79.75
7918;BME280;4004;42.624;23.386;2023-01-30T13:33:44;93812.25;;;1.31;81.48
7918;BME280;4004;42.624;23.386;2023-01-30T13:36:15;93817.91;;;1.38;78.96